Time,TemperatureF,DewpointF,PressureIn,WindDirection,WindDirectionDegrees,WindSpeedMPH,WindSpeedGustMPH,Humidity,HourlyPrecipIn,Conditions,Clouds,dailyrainin,SoftwareType,DateUTC
2013-04-17 00:00:00,63.9,26.4,27.67,South,177,0.0,0.0,24,0.00,,---,0.00,VWS V14.01,2013-04-17 04:00:00,
2013-04-17 00:05:00,63.7,26.2,27.67,SE,138,0.0,0.0,24,0.00,,---,0.00,VWS V14.01,2013-04-17 04:05:00,
2013-04-17 00:10:00,63.3,25.9,27.67,SE,136,0.0,0.0,24,0.00,,---,0.00,VWS V14.01,2013-04-17 04:10:00,
2013-04-17 00:15:00,63.1,26.8,27.67,SE,134,0.0,0.0,25,0.00,,---,0.00,VWS V14.01,2013-04-17 04:15:00,
2013-04-17 00:20:00,63.0,26.6,27.67,SE,134,0.0,0.0,25,0.00,,---,0.00,VWS V14.01,2013-04-17 04:20:00,
2013-04-17 00:25:00,62.8,27.4,27.67,SE,134,0.0,0.0,26,0.00,,---,0.00,VWS V14.01,2013-04-17 04:25:00,
2013-04-17 00:30:00,62.6,27.3,27.67,SE,134,0.0,0.0,26,0.00,,---,0.00,VWS V14.01,2013-04-17 04:30:00,
2013-04-17 00:35:00,62.4,28.0,27.67,SE,134,0.0,0.0,27,0.00,,---,0.00,VWS V14.01,2013-04-17 04:35:00,
2013-04-17 00:40:00,62.2,28.8,27.67,SE,134,0.0,0.0,28,0.00,,---,0.00,VWS V14.01,2013-04-17 04:40:00,
2013-04-17 00:45:00,62.2,28.8,27.67,SE,134,0.0,0.0,28,0.00,,---,0.00,VWS V14.01,2013-04-17 04:45:00,
2013-04-17 00:50:00,62.2,29.6,27.67,SE,134,2.2,2.2,29,0.00,,---,0.00,VWS V14.01,2013-04-17 04:50:00,
2013-04-17 00:55:00,62.4,31.4,27.67,North,353,4.0,4.0,31,0.00,,---,0.00,VWS V14.01,2013-04-17 04:55:00,
2013-04-17 01:00:00,62.4,31.4,27.67,North,353,0.0,0.0,31,0.00,,---,0.00,VWS V14.01,2013-04-17 05:00:00,
2013-04-17 01:05:00,62.2,31.2,27.67,North,353,0.0,0.0,31,0.00,,---,0.00,VWS V14.01,2013-04-17 05:05:00,
2013-04-17 01:10:00,62.2,31.2,27.67,North,353,0.0,0.0,31,0.00,,---,0.00,VWS V14.01,2013-04-17 05:10:00,
2013-04-17 01:15:00,62.1,31.1,27.67,North,353,0.0,0.0,31,0.00,,---,0.00,VWS V14.01,2013-04-17 05:15:00,
2013-04-17 01:20:00,61.9,31.7,27.67,North,353,0.0,0.0,32,0.00,,---,0.00,VWS V14.01,2013-04-17 05:20:00,
2013-04-17 01:25:00,61.7,32.3,27.67,North,353,0.0,0.0,33,0.00,,---,0.00,VWS V14.01,2013-04-17 05:25:00,
2013-04-17 01:30:00,61.3,32.8,27.67,North,353,0.0,0.0,34,0.00,,---,0.00,VWS V14.01,2013-04-17 05:30:00,
2013-04-17 01:35:00,61.2,32.6,27.67,North,353,0.0,0.0,34,0.00,,---,0.00,VWS V14.01,2013-04-17 05:35:00,
2013-04-17 01:40:00,61.0,32.4,27.67,North,353,0.0,0.0,34,0.00,,---,0.00,VWS V14.01,2013-04-17 05:40:00,
2013-04-17 01:45:00,61.0,32.4,27.67,North,353,0.0,0.0,34,0.00,,---,0.00,VWS V14.01,2013-04-17 05:45:00,
2013-04-17 01:50:00,60.8,33.0,27.67,North,353,0.0,0.0,35,0.00,,---,0.00,VWS V14.01,2013-04-17 05:50:00,
2013-04-17 01:55:00,60.6,32.8,27.64,North,353,0.0,0.0,35,0.00,,---,0.00,VWS V14.01,2013-04-17 05:55:00,
2013-04-17 02:00:00,60.4,33.4,27.64,North,353,0.0,0.0,36,0.00,,---,0.00,VWS V14.01,2013-04-17 06:00:00,
2013-04-17 02:05:00,60.3,33.2,27.64,North,353,0.0,0.0,36,0.00,,---,0.00,VWS V14.01,2013-04-17 06:05:00,
2013-04-17 02:10:00,60.1,33.1,27.64,North,353,0.0,0.0,36,0.00,,---,0.00,VWS V14.01,2013-04-17 06:10:00,
2013-04-17 02:15:00,60.1,33.1,27.64,North,353,0.0,0.0,36,0.00,,---,0.00,VWS V14.01,2013-04-17 06:15:00,
2013-04-17 02:20:00,59.9,33.6,27.64,North,353,0.0,0.0,37,0.00,,---,0.00,VWS V14.01,2013-04-17 06:20:00,
2013-04-17 02:25:00,59.7,33.4,27.64,North,353,0.0,0.0,37,0.00,,---,0.00,VWS V14.01,2013-04-17 06:25:00,
2013-04-17 02:30:00,59.7,34.1,27.64,North,353,0.0,0.0,38,0.00,,---,0.00,VWS V14.01,2013-04-17 06:30:00,
2013-04-17 02:35:00,59.7,34.1,27.64,North,353,0.0,0.0,38,0.00,,---,0.00,VWS V14.01,2013-04-17 06:35:00,
2013-04-17 02:40:00,59.7,34.1,27.64,North,353,0.0,0.0,38,0.00,,---,0.00,VWS V14.01,2013-04-17 06:40:00,
2013-04-17 02:45:00,59.7,34.7,27.64,North,353,0.0,0.0,39,0.00,,---,0.00,VWS V14.01,2013-04-17 06:45:00,
2013-04-17 02:50:00,59.5,34.6,27.64,North,353,0.0,0.0,39,0.00,,---,0.00,VWS V14.01,2013-04-17 06:50:00,
2013-04-17 02:55:00,59.5,34.6,27.64,North,353,0.0,0.0,39,0.00,,---,0.00,VWS V14.01,2013-04-17 06:55:00,
2013-04-17 03:00:00,59.4,34.4,27.64,North,353,0.0,0.0,39,0.00,,---,0.00,VWS V14.01,2013-04-17 07:00:00,
2013-04-17 03:05:00,59.4,35.1,27.64,North,353,0.0,0.0,40,0.00,,---,0.00,VWS V14.01,2013-04-17 07:05:00,
2013-04-17 03:10:00,59.2,34.9,27.64,North,353,0.0,0.0,40,0.00,,---,0.00,VWS V14.01,2013-04-17 07:10:00,
2013-04-17 03:15:00,59.2,34.9,27.64,North,353,0.0,0.0,40,0.00,,---,0.00,VWS V14.01,2013-04-17 07:15:00,
2013-04-17 03:20:00,59.2,34.9,27.64,North,353,0.0,0.0,40,0.00,,---,0.00,VWS V14.01,2013-04-17 07:20:00,
2013-04-17 03:25:00,59.0,35.3,27.67,North,353,0.0,0.0,41,0.00,,---,0.00,VWS V14.01,2013-04-17 07:25:00,
2013-04-17 03:30:00,59.0,35.3,27.67,North,353,0.0,0.0,41,0.00,,---,0.00,VWS V14.01,2013-04-17 07:30:00,
2013-04-17 03:35:00,58.8,35.8,27.67,North,353,0.0,0.0,42,0.00,,---,0.00,VWS V14.01,2013-04-17 07:35:00,
2013-04-17 03:40:00,58.8,35.8,27.67,North,353,0.0,0.0,42,0.00,,---,0.00,VWS V14.01,2013-04-17 07:40:00,
2013-04-17 03:45:00,58.8,35.8,27.67,North,353,0.0,0.0,42,0.00,,---,0.00,VWS V14.01,2013-04-17 07:45:00,
2013-04-17 03:50:00,58.8,36.4,27.67,North,353,0.0,0.0,43,0.00,,---,0.00,VWS V14.01,2013-04-17 07:50:00,
2013-04-17 03:55:00,58.8,36.4,27.67,North,353,0.0,0.0,43,0.00,,---,0.00,VWS V14.01,2013-04-17 07:55:00,
2013-04-17 04:00:00,58.8,37.0,27.67,North,353,0.0,0.0,44,0.00,,---,0.00,VWS V14.01,2013-04-17 08:00:00,
2013-04-17 04:05:00,58.8,37.0,27.67,North,353,0.0,0.0,44,0.00,,---,0.00,VWS V14.01,2013-04-17 08:05:00,
2013-04-17 04:10:00,59.0,37.1,27.67,North,353,0.0,0.0,44,0.00,,---,0.00,VWS V14.01,2013-04-17 08:10:00,
2013-04-17 04:15:00,59.0,37.1,27.67,North,353,0.0,0.0,44,0.00,,---,0.00,VWS V14.01,2013-04-17 08:15:00,
2013-04-17 04:20:00,59.0,37.1,27.67,North,353,0.0,0.0,44,0.00,,---,0.00,VWS V14.01,2013-04-17 08:20:00,
2013-04-17 04:24:00,59.0,37.1,27.64,North,353,0.0,0.0,44,0.00,,---,0.00,VWS V14.01,2013-04-17 08:24:00,
2013-04-17 04:29:00,58.8,37.5,27.64,North,353,0.0,0.0,45,0.00,,---,0.00,VWS V14.01,2013-04-17 08:29:00,
2013-04-17 04:34:00,58.8,37.5,27.64,North,353,0.0,0.0,45,0.00,,---,0.00,VWS V14.01,2013-04-17 08:34:00,
2013-04-17 04:39:00,58.8,37.5,27.64,North,353,0.0,0.0,45,0.00,,---,0.00,VWS V14.01,2013-04-17 08:39:00,
2013-04-17 04:44:00,58.6,37.4,27.64,North,353,0.0,0.0,45,0.00,,---,0.00,VWS V14.01,2013-04-17 08:44:00,
2013-04-17 04:49:00,58.6,37.4,27.64,North,353,0.0,0.0,45,0.00,,---,0.00,VWS V14.01,2013-04-17 08:49:00,
2013-04-17 04:54:00,58.5,37.2,27.67,North,353,0.0,0.0,45,0.00,,---,0.00,VWS V14.01,2013-04-17 08:54:00,
2013-04-17 04:59:00,58.5,37.2,27.67,North,353,0.0,0.0,45,0.00,,---,0.00,VWS V14.01,2013-04-17 08:59:00,
2013-04-17 05:04:00,58.3,37.0,27.67,North,353,0.0,0.0,45,0.00,,---,0.00,VWS V14.01,2013-04-17 09:04:00,
2013-04-17 05:09:00,58.1,36.9,27.67,North,353,0.0,0.0,45,0.00,,---,0.00,VWS V14.01,2013-04-17 09:09:00,
2013-04-17 05:14:00,58.1,37.5,27.67,North,353,0.0,0.0,46,0.00,,---,0.00,VWS V14.01,2013-04-17 09:14:00,
2013-04-17 05:19:00,58.1,37.5,27.67,North,353,0.0,0.0,46,0.00,,---,0.00,VWS V14.01,2013-04-17 09:19:00,
2013-04-17 05:24:00,58.1,37.5,27.64,North,353,0.0,0.0,46,0.00,,---,0.00,VWS V14.01,2013-04-17 09:24:00,
2013-04-17 05:29:00,58.1,38.0,27.64,North,353,0.0,0.0,47,0.00,,---,0.00,VWS V14.01,2013-04-17 09:29:00,
2013-04-17 05:34:00,58.3,38.2,27.64,SE,145,2.7,2.7,47,0.00,,---,0.00,VWS V14.01,2013-04-17 09:34:00,
2013-04-17 05:39:00,58.5,38.3,27.64,North,8,0.0,0.0,47,0.00,,---,0.00,VWS V14.01,2013-04-17 09:39:00,
2013-04-17 05:44:00,58.5,38.3,27.64,North,8,0.0,0.0,47,0.00,,---,0.00,VWS V14.01,2013-04-17 09:44:00,
2013-04-17 05:49:00,58.5,38.9,27.64,WNW,285,0.0,0.0,48,0.00,,---,0.00,VWS V14.01,2013-04-17 09:49:00,
2013-04-17 05:54:00,58.6,39.0,27.67,ESE,115,2.7,3.6,48,0.00,,---,0.00,VWS V14.01,2013-04-17 09:54:00,
2013-04-17 05:59:00,58.6,39.0,27.67,South,169,0.0,2.7,48,0.00,,---,0.00,VWS V14.01,2013-04-17 09:59:00,
2013-04-17 06:04:00,58.5,38.3,27.67,South,169,0.0,0.0,47,0.00,,---,0.00,VWS V14.01,2013-04-17 10:04:00,
2013-04-17 06:09:00,58.3,38.2,27.64,South,169,0.0,0.0,47,0.00,,---,0.00,VWS V14.01,2013-04-17 10:09:00,
2013-04-17 06:14:00,58.1,38.0,27.64,South,169,0.0,0.0,47,0.00,,---,0.00,VWS V14.01,2013-04-17 10:14:00,
2013-04-17 06:19:00,58.1,38.0,27.64,South,169,0.0,0.0,47,0.00,,---,0.00,VWS V14.01,2013-04-17 10:19:00,
2013-04-17 06:24:00,57.9,38.4,27.67,South,169,0.0,0.0,48,0.00,,---,0.00,VWS V14.01,2013-04-17 10:24:00,
2013-04-17 06:29:00,57.7,38.2,27.67,South,169,0.0,0.0,48,0.00,,---,0.00,VWS V14.01,2013-04-17 10:29:00,
2013-04-17 06:34:00,57.7,38.2,27.67,South,169,0.0,0.0,48,0.00,,---,0.00,VWS V14.01,2013-04-17 10:34:00,
2013-04-17 06:39:00,57.7,38.2,27.67,South,169,0.0,0.0,48,0.00,,---,0.00,VWS V14.01,2013-04-17 10:39:00,
2013-04-17 06:44:00,57.7,38.7,27.67,South,169,0.0,0.0,49,0.00,,---,0.00,VWS V14.01,2013-04-17 10:44:00,
2013-04-17 06:49:00,57.7,38.7,27.67,NW,312,2.7,5.4,49,0.00,,---,0.00,VWS V14.01,2013-04-17 10:49:00,
2013-04-17 06:54:00,57.7,38.7,27.67,ESE,116,0.0,3.1,49,0.00,,---,0.00,VWS V14.01,2013-04-17 10:54:00,
2013-04-17 06:59:00,57.7,38.7,27.67,ESE,116,0.0,0.0,49,0.00,,---,0.00,VWS V14.01,2013-04-17 10:59:00,
2013-04-17 07:04:00,57.6,38.6,27.67,ESE,116,0.0,0.0,49,0.00,,---,0.00,VWS V14.01,2013-04-17 11:04:00,
2013-04-17 07:09:00,57.7,39.2,27.67,ESE,116,0.0,0.0,50,0.00,,---,0.00,VWS V14.01,2013-04-17 11:09:00,
2013-04-17 07:14:00,57.7,39.2,27.67,ESE,116,0.0,0.0,50,0.00,,---,0.00,VWS V14.01,2013-04-17 11:14:00,
2013-04-17 07:19:00,57.9,39.4,27.67,ESE,121,0.0,2.2,50,0.00,,---,0.00,VWS V14.01,2013-04-17 11:19:00,
2013-04-17 07:24:00,57.9,39.4,27.70,ESE,122,0.0,0.0,50,0.00,,---,0.00,VWS V14.01,2013-04-17 11:24:00,
2013-04-17 07:29:00,57.9,39.9,27.70,ESE,121,0.0,0.0,51,0.00,,---,0.00,VWS V14.01,2013-04-17 11:29:00,
2013-04-17 07:34:00,58.1,40.1,27.70,ESE,121,0.0,0.0,51,0.00,,---,0.00,VWS V14.01,2013-04-17 11:34:00,
2013-04-17 07:39:00,58.1,40.1,27.70,ESE,121,0.0,0.0,51,0.00,,---,0.00,VWS V14.01,2013-04-17 11:39:00,
2013-04-17 07:44:00,58.3,40.2,27.70,ESE,121,0.0,0.0,51,0.00,,---,0.00,VWS V14.01,2013-04-17 11:44:00,
2013-04-17 07:49:00,58.3,40.2,27.70,ESE,121,0.0,0.0,51,0.00,,---,0.00,VWS V14.01,2013-04-17 11:49:00,
2013-04-17 07:54:00,58.5,40.9,27.70,ESE,121,0.0,0.0,52,0.00,,---,0.00,VWS V14.01,2013-04-17 11:54:00,
2013-04-17 07:59:00,58.6,41.1,27.70,ESE,122,0.0,0.0,52,0.00,,---,0.00,VWS V14.01,2013-04-17 11:59:00,
2013-04-17 08:04:00,58.8,40.8,27.70,ESE,122,0.0,0.0,51,0.00,,---,0.00,VWS V14.01,2013-04-17 12:04:00,
2013-04-17 08:09:00,58.8,40.8,27.70,ESE,121,0.0,0.0,51,0.00,,---,0.00,VWS V14.01,2013-04-17 12:09:00,
2013-04-17 08:14:00,58.8,40.8,27.70,ESE,121,0.0,0.0,51,0.00,,---,0.00,VWS V14.01,2013-04-17 12:14:00,
2013-04-17 08:19:00,59.2,41.1,27.70,ESE,121,0.0,0.0,51,0.00,,---,0.00,VWS V14.01,2013-04-17 12:19:00,
2013-04-17 08:24:00,59.4,41.8,27.70,ESE,121,0.0,0.0,52,0.00,,---,0.00,VWS V14.01,2013-04-17 12:24:00,
2013-04-17 08:29:00,59.7,42.1,27.70,ESE,121,0.0,0.0,52,0.00,,---,0.00,VWS V14.01,2013-04-17 12:29:00,
2013-04-17 08:34:00,60.3,42.6,27.70,ESE,121,0.0,0.0,52,0.00,,---,0.00,VWS V14.01,2013-04-17 12:34:00,
2013-04-17 08:39:00,60.6,42.9,27.70,ESE,122,0.0,0.0,52,0.00,,---,0.00,VWS V14.01,2013-04-17 12:39:00,
2013-04-17 08:44:00,61.2,42.9,27.70,WSW,239,0.0,2.2,51,0.00,,---,0.00,VWS V14.01,2013-04-17 12:44:00,
2013-04-17 08:49:00,61.9,43.1,27.70,SE,130,2.2,2.2,50,0.00,,---,0.00,VWS V14.01,2013-04-17 12:49:00,
2013-04-17 08:54:00,62.8,43.4,27.70,SE,124,2.2,2.2,49,0.00,,---,0.00,VWS V14.01,2013-04-17 12:54:00,
2013-04-17 08:59:00,63.5,42.9,27.70,SE,125,0.0,0.0,47,0.00,,---,0.00,VWS V14.01,2013-04-17 12:59:00,
2013-04-17 09:04:00,64.0,42.3,27.70,SE,125,0.0,0.0,45,0.00,,---,0.00,VWS V14.01,2013-04-17 13:04:00,
2013-04-17 09:09:00,64.4,41.4,27.70,SE,125,0.0,0.0,43,0.00,,---,0.00,VWS V14.01,2013-04-17 13:09:00,
2013-04-17 09:14:00,64.6,40.4,27.70,SE,125,2.7,3.1,41,0.00,,---,0.00,VWS V14.01,2013-04-17 13:14:00,
2013-04-17 09:19:00,64.9,39.4,27.70,ESE,120,0.0,2.2,39,0.00,,---,0.00,VWS V14.01,2013-04-17 13:19:00,
2013-04-17 09:24:00,65.3,38.4,27.70,ESE,120,0.0,2.2,37,0.00,,---,0.00,VWS V14.01,2013-04-17 13:24:00,
2013-04-17 09:29:00,65.7,38.0,27.70,North,0,3.1,3.6,36,0.00,,---,0.00,VWS V14.01,2013-04-17 13:29:00,
2013-04-17 09:34:00,66.0,37.6,27.70,SE,128,2.2,2.2,35,0.00,,---,0.00,VWS V14.01,2013-04-17 13:34:00,
2013-04-17 09:39:00,66.4,36.4,27.67,ENE,61,0.0,0.0,33,0.00,,---,0.00,VWS V14.01,2013-04-17 13:39:00,
2013-04-17 09:44:00,66.9,36.9,27.67,SE,141,3.1,3.1,33,0.00,,---,0.00,VWS V14.01,2013-04-17 13:44:00,
2013-04-17 09:49:00,67.3,35.6,27.67,ENE,69,0.0,2.7,31,0.00,,---,0.00,VWS V14.01,2013-04-17 13:49:00,
2013-04-17 09:54:00,67.5,33.2,27.67,East,86,0.0,2.7,28,0.00,,---,0.00,VWS V14.01,2013-04-17 13:54:00,
2013-04-17 09:59:00,67.6,32.5,27.67,SSE,166,0.0,2.7,27,0.00,,---,0.00,VWS V14.01,2013-04-17 13:59:00,
2013-04-17 10:04:00,68.0,30.9,27.67,West,264,3.1,3.1,25,0.00,,---,0.00,VWS V14.01,2013-04-17 14:04:00,
2013-04-17 10:09:00,68.4,29.1,27.67,South,189,2.7,2.7,23,0.00,,---,0.00,VWS V14.01,2013-04-17 14:09:00,
2013-04-17 10:14:00,68.5,30.4,27.67,East,85,2.7,3.6,24,0.00,,---,0.00,VWS V14.01,2013-04-17 14:14:00,
2013-04-17 10:19:00,69.1,29.8,27.67,East,92,4.0,5.4,23,0.00,,---,0.00,VWS V14.01,2013-04-17 14:19:00,
2013-04-17 10:24:00,69.6,30.2,27.67,ESE,116,2.7,2.7,23,0.00,,---,0.00,VWS V14.01,2013-04-17 14:24:00,
2013-04-17 10:29:00,70.2,29.6,27.67,ESE,118,4.9,4.9,22,0.00,,---,0.00,VWS V14.01,2013-04-17 14:29:00,
2013-04-17 10:34:00,70.3,23.5,27.67,East,101,4.9,6.3,17,0.00,,---,0.00,VWS V14.01,2013-04-17 14:34:00,
2013-04-17 10:39:00,70.5,23.6,27.67,NNE,26,0.0,2.7,17,0.00,,---,0.00,VWS V14.01,2013-04-17 14:39:00,
2013-04-17 10:44:00,70.5,23.6,27.67,ESE,118,2.7,2.7,17,0.00,,---,0.00,VWS V14.01,2013-04-17 14:44:00,
2013-04-17 10:49:00,70.7,19.2,27.67,ENE,77,3.6,3.6,14,0.00,,---,0.00,VWS V14.01,2013-04-17 14:49:00,
2013-04-17 10:54:00,70.9,19.4,27.67,NE,47,0.0,2.2,14,0.00,,---,0.00,VWS V14.01,2013-04-17 14:54:00,
2013-04-17 10:59:00,70.9,19.4,27.67,ENE,75,0.0,2.2,14,0.00,,---,0.00,VWS V14.01,2013-04-17 14:59:00,
2013-04-17 11:04:00,71.1,19.5,27.67,ESE,114,2.2,2.7,14,0.00,,---,0.00,VWS V14.01,2013-04-17 15:04:00,
2013-04-17 11:09:00,71.4,16.2,27.67,SE,128,3.6,3.6,12,0.00,,---,0.00,VWS V14.01,2013-04-17 15:09:00,
2013-04-17 11:14:00,71.6,14.4,27.67,ESE,110,2.7,3.1,11,0.00,,---,0.00,VWS V14.01,2013-04-17 15:14:00,
2013-04-17 11:19:00,72.3,10.4,27.67,ESE,117,4.0,4.0,9,0.00,,---,0.00,VWS V14.01,2013-04-17 15:19:00,
2013-04-17 11:24:00,72.7,10.6,27.67,ESE,120,2.7,3.1,9,0.00,,---,0.00,VWS V14.01,2013-04-17 15:24:00,
2013-04-17 11:29:00,72.9,10.8,27.67,East,85,3.1,4.0,9,0.00,,---,0.00,VWS V14.01,2013-04-17 15:29:00,
2013-04-17 11:34:00,73.0,2.0,27.67,ESE,118,2.7,3.1,6,0.00,,---,0.00,VWS V14.01,2013-04-17 15:34:00,
2013-04-17 11:39:00,73.2,2.1,27.67,SE,133,3.6,3.6,6,0.00,,---,0.00,VWS V14.01,2013-04-17 15:39:00,
2013-04-17 11:44:00,73.4,2.3,27.67,ENE,76,4.0,4.0,6,0.00,,---,0.00,VWS V14.01,2013-04-17 15:44:00,
2013-04-17 11:49:00,73.8,2.5,27.67,East,84,3.1,3.1,6,0.00,,---,0.00,VWS V14.01,2013-04-17 15:49:00,
2013-04-17 11:54:00,73.8,2.5,27.67,ESE,103,5.4,5.4,6,0.00,,---,0.00,VWS V14.01,2013-04-17 15:54:00,
2013-04-17 11:59:00,74.1,2.8,27.67,SE,138,5.8,5.8,6,0.00,,---,0.00,VWS V14.01,2013-04-17 15:59:00,
2013-04-17 12:04:00,74.7,3.2,27.67,SE,126,0.0,3.1,6,0.00,,---,0.00,VWS V14.01,2013-04-17 16:04:00,
2013-04-17 12:09:00,75.2,-0.3,27.67,SE,131,4.0,4.0,5,0.00,,---,0.00,VWS V14.01,2013-04-17 16:09:00,
2013-04-17 12:14:00,76.5,0.6,27.67,WSW,247,2.2,3.1,5,0.00,,---,0.00,VWS V14.01,2013-04-17 16:14:00,
2013-04-17 12:19:00,77.5,-9.3,27.67,SE,127,3.1,3.1,3,0.00,,---,0.00,VWS V14.01,2013-04-17 16:19:00,
2013-04-17 12:24:00,78.1,-9.0,27.67,SSE,152,6.3,6.3,3,0.00,,---,0.00,VWS V14.01,2013-04-17 16:24:00,
2013-04-17 12:29:00,78.4,-8.7,27.67,SE,130,5.4,5.4,3,0.00,,---,0.00,VWS V14.01,2013-04-17 16:29:00,
2013-04-17 12:34:00,79.2,-16.3,27.67,SSE,155,4.9,4.9,2,0.00,,---,0.00,VWS V14.01,2013-04-17 16:34:00,
2013-04-17 12:39:00,80.1,-15.8,27.64,ESE,105,3.6,3.6,2,0.00,,---,0.00,VWS V14.01,2013-04-17 16:39:00,
2013-04-17 12:44:00,81.1,-15.1,27.64,SE,146,3.1,3.1,2,0.00,,---,0.00,VWS V14.01,2013-04-17 16:44:00,
2013-04-17 12:49:00,82.0,-14.5,27.64,East,98,3.1,4.9,2,0.00,,---,0.00,VWS V14.01,2013-04-17 16:49:00,
2013-04-17 12:54:00,82.8,-14.0,27.64,SSE,157,5.8,6.3,2,0.00,,---,0.00,VWS V14.01,2013-04-17 16:54:00,
2013-04-17 12:59:00,82.8,-14.0,27.64,ESE,108,5.8,5.8,2,0.00,,---,0.00,VWS V14.01,2013-04-17 16:59:00,
2013-04-17 13:04:00,81.7,-14.7,27.64,ENE,62,0.0,2.2,2,0.00,,---,0.00,VWS V14.01,2013-04-17 17:04:00,
2013-04-17 13:09:00,80.8,-15.3,27.64,East,99,3.1,3.1,2,0.00,,---,0.00,VWS V14.01,2013-04-17 17:09:00,
2013-04-17 13:14:00,80.2,-15.6,27.64,SE,136,3.6,4.0,2,0.00,,---,0.00,VWS V14.01,2013-04-17 17:14:00,
2013-04-17 13:19:00,80.4,-15.5,27.64,ESE,115,3.1,3.6,2,0.00,,---,0.00,VWS V14.01,2013-04-17 17:19:00,
2013-04-17 13:24:00,81.0,-15.2,27.64,West,279,4.5,4.5,2,0.00,,---,0.00,VWS V14.01,2013-04-17 17:24:00,
2013-04-17 13:29:00,81.9,-14.6,27.64,ENE,61,2.7,3.1,2,0.00,,---,0.00,VWS V14.01,2013-04-17 17:29:00,
2013-04-17 13:34:00,82.2,-14.4,27.64,ESE,106,3.1,4.0,2,0.00,,---,0.00,VWS V14.01,2013-04-17 17:34:00,
2013-04-17 13:39:00,81.0,-15.2,27.64,NW,315,2.7,2.7,2,0.00,,---,0.00,VWS V14.01,2013-04-17 17:39:00,
2013-04-17 13:44:00,79.0,-16.5,27.64,WNW,288,3.6,3.6,2,0.00,,---,0.00,VWS V14.01,2013-04-17 17:44:00,
2013-04-17 13:49:00,75.9,-10.4,27.64,NE,34,3.6,3.6,3,0.00,,---,0.00,VWS V14.01,2013-04-17 17:49:00,
2013-04-17 13:54:00,72.3,-7.0,27.64,NNE,20,4.0,4.9,4,0.00,,---,0.00,VWS V14.01,2013-04-17 17:54:00,
2013-04-17 13:59:00,70.2,-8.5,27.64,WSW,245,6.3,6.3,4,0.00,,---,0.00,VWS V14.01,2013-04-17 17:59:00,
2013-04-17 14:04:00,68.7,10.0,27.64,WNW,296,3.1,3.1,10,0.00,,---,0.00,VWS V14.01,2013-04-17 18:04:00,
2013-04-17 14:09:00,67.6,9.1,27.67,SSW,212,2.7,2.7,10,0.00,,---,0.00,VWS V14.01,2013-04-17 18:09:00,
2013-04-17 14:14:00,67.1,17.9,27.67,ENE,58,11.0,11.0,15,0.00,,---,0.00,VWS V14.01,2013-04-17 18:14:00,
2013-04-17 14:19:00,66.6,26.6,27.67,East,88,6.3,6.3,22,0.00,,---,0.00,VWS V14.01,2013-04-17 18:19:00,
2013-04-17 14:24:00,66.0,27.2,27.67,West,264,2.7,4.0,23,0.00,,---,0.00,VWS V14.01,2013-04-17 18:24:00,
2013-04-17 14:29:00,65.7,27.9,27.67,West,269,3.6,3.6,24,0.00,,---,0.00,VWS V14.01,2013-04-17 18:29:00,
2013-04-17 14:34:00,65.5,28.8,27.67,East,95,4.9,4.9,25,0.00,,---,0.00,VWS V14.01,2013-04-17 18:34:00,
2013-04-17 14:39:00,65.1,30.3,27.70,SE,135,2.7,2.7,27,0.00,,---,0.00,VWS V14.01,2013-04-17 18:39:00,
2013-04-17 14:44:00,64.9,31.1,27.70,WNW,285,0.0,0.0,28,0.00,,---,0.00,VWS V14.01,2013-04-17 18:44:00,
2013-04-17 14:49:00,64.8,32.6,27.70,SSE,163,2.7,4.0,30,0.00,,---,0.00,VWS V14.01,2013-04-17 18:49:00,
2013-04-17 14:54:00,64.2,33.0,27.67,East,101,0.0,2.2,31,0.00,,---,0.00,VWS V14.01,2013-04-17 18:54:00,
2013-04-17 14:59:00,64.2,34.5,27.67,SE,146,3.1,3.1,33,0.00,,---,0.00,VWS V14.01,2013-04-17 18:59:00,
2013-04-17 15:04:00,64.2,35.3,27.67,ESE,102,3.6,3.6,34,0.00,,---,0.00,VWS V14.01,2013-04-17 19:04:00,
2013-04-17 15:09:00,64.2,36.0,27.67,NW,317,3.1,3.1,35,0.00,,---,0.00,VWS V14.01,2013-04-17 19:09:00,
2013-04-17 15:14:00,64.2,36.7,27.67,SSW,205,0.0,0.0,36,0.00,,---,0.00,VWS V14.01,2013-04-17 19:14:00,
2013-04-17 15:19:00,64.6,37.8,27.67,East,97,0.0,0.0,37,0.00,,---,0.00,VWS V14.01,2013-04-17 19:19:00,
2013-04-17 15:24:00,65.1,38.2,27.64,East,94,0.0,2.2,37,0.00,,---,0.00,VWS V14.01,2013-04-17 19:24:00,
2013-04-17 15:29:00,65.7,38.7,27.64,SSE,163,2.2,2.2,37,0.00,,---,0.00,VWS V14.01,2013-04-17 19:29:00,
2013-04-17 15:34:00,66.4,39.3,27.64,West,259,2.7,2.7,37,0.04,,---,0.04,VWS V14.01,2013-04-17 19:34:00,
2013-04-17 15:39:00,67.1,39.3,27.64,West,273,3.1,3.1,36,0.04,,---,0.04,VWS V14.01,2013-04-17 19:39:00,
2013-04-17 15:44:00,68.4,40.4,27.64,SE,144,2.2,3.1,36,0.04,,---,0.04,VWS V14.01,2013-04-17 19:44:00,
2013-04-17 15:49:00,69.3,38.2,27.64,NNW,331,2.7,2.7,32,0.04,,---,0.04,VWS V14.01,2013-04-17 19:49:00,
2013-04-17 15:54:00,68.5,32.3,27.64,NNW,334,3.6,3.6,26,0.04,,---,0.04,VWS V14.01,2013-04-17 19:54:00,
2013-04-17 15:59:00,68.0,30.9,27.64,West,271,2.7,2.7,25,0.04,,---,0.04,VWS V14.01,2013-04-17 19:59:00,
2013-04-17 16:04:00,67.6,30.6,27.64,NNW,332,2.2,2.2,25,0.04,,---,0.04,VWS V14.01,2013-04-17 20:04:00,
2013-04-17 16:09:00,67.6,31.6,27.67,NNW,332,0.0,0.0,26,0.04,,---,0.04,VWS V14.01,2013-04-17 20:09:00,
2013-04-17 16:14:00,68.2,31.0,27.67,WSW,246,0.0,0.0,25,0.04,,---,0.04,VWS V14.01,2013-04-17 20:14:00,
2013-04-17 16:19:00,68.7,30.5,27.67,WSW,243,0.0,0.0,24,0.04,,---,0.04,VWS V14.01,2013-04-17 20:19:00,
2013-04-17 16:24:00,68.9,29.6,27.64,WSW,249,0.0,2.2,23,0.04,,---,0.04,VWS V14.01,2013-04-17 20:24:00,
2013-04-17 16:29:00,69.4,29.0,27.64,SE,137,0.0,0.0,22,0.04,,---,0.04,VWS V14.01,2013-04-17 20:29:00,
2013-04-17 16:34:00,70.0,25.9,27.64,SW,228,0.0,0.0,19,0.00,,---,0.04,VWS V14.01,2013-04-17 20:34:00,
2013-04-17 16:39:00,70.2,23.4,27.64,SE,138,3.1,3.1,17,0.00,,---,0.04,VWS V14.01,2013-04-17 20:39:00,
2013-04-17 16:44:00,70.3,18.9,27.64,SSE,153,0.0,0.0,14,0.00,,---,0.04,VWS V14.01,2013-04-17 20:44:00,
2013-04-17 16:49:00,70.5,15.5,27.64,SSE,150,0.0,0.0,12,0.00,,---,0.04,VWS V14.01,2013-04-17 20:49:00,
2013-04-17 16:54:00,70.5,9.0,27.64,West,260,3.1,3.1,9,0.00,,---,0.04,VWS V14.01,2013-04-17 20:54:00,
2013-04-17 16:59:00,70.7,9.1,27.64,SSE,150,3.1,3.1,9,0.00,,---,0.04,VWS V14.01,2013-04-17 20:59:00,
2013-04-17 17:04:00,71.1,9.4,27.64,WSW,239,0.0,3.1,9,0.00,,---,0.04,VWS V14.01,2013-04-17 21:04:00,
2013-04-17 17:09:00,71.4,9.7,27.61,SE,124,3.6,3.6,9,0.00,,---,0.04,VWS V14.01,2013-04-17 21:09:00,
2013-04-17 17:14:00,72.5,10.5,27.61,SE,125,4.0,4.0,9,0.00,,---,0.04,VWS V14.01,2013-04-17 21:14:00,
2013-04-17 17:19:00,73.2,2.1,27.61,SE,135,5.4,5.4,6,0.00,,---,0.04,VWS V14.01,2013-04-17 21:19:00,
2013-04-17 17:24:00,73.6,2.4,27.61,East,92,2.7,3.1,6,0.00,,---,0.04,VWS V14.01,2013-04-17 21:24:00,
2013-04-17 17:29:00,73.4,2.3,27.61,ESE,111,2.2,3.1,6,0.00,,---,0.04,VWS V14.01,2013-04-17 21:29:00,
2013-04-17 17:34:00,73.2,2.1,27.61,SE,138,4.0,4.9,6,0.00,,---,0.04,VWS V14.01,2013-04-17 21:34:00,
2013-04-17 17:39:00,72.7,1.8,27.61,ENE,77,3.1,4.9,6,0.00,,---,0.04,VWS V14.01,2013-04-17 21:39:00,
2013-04-17 17:44:00,72.5,1.6,27.61,East,101,4.0,4.0,6,0.00,,---,0.04,VWS V14.01,2013-04-17 21:44:00,
2013-04-17 17:49:00,72.5,1.6,27.61,SE,124,2.2,2.2,6,0.00,,---,0.04,VWS V14.01,2013-04-17 21:49:00,
2013-04-17 17:54:00,72.7,1.8,27.61,South,175,2.7,2.7,6,0.00,,---,0.04,VWS V14.01,2013-04-17 21:54:00,
2013-04-17 17:59:00,72.5,1.6,27.61,ESE,112,0.0,0.0,6,0.00,,---,0.04,VWS V14.01,2013-04-17 21:59:00,
2013-04-17 18:04:00,72.3,1.5,27.61,ESE,122,4.0,4.0,6,0.00,,---,0.04,VWS V14.01,2013-04-17 22:04:00,
2013-04-17 18:09:00,72.0,1.2,27.61,ESE,120,0.0,0.0,6,0.00,,---,0.04,VWS V14.01,2013-04-17 22:09:00,
2013-04-17 18:14:00,71.6,1.0,27.61,ESE,120,0.0,0.0,6,0.00,,---,0.04,VWS V14.01,2013-04-17 22:14:00,
2013-04-17 18:19:00,71.1,3.9,27.61,SE,124,2.2,2.2,7,0.00,,---,0.04,VWS V14.01,2013-04-17 22:19:00,
2013-04-17 18:24:00,70.7,3.6,27.58,ESE,111,2.7,2.7,7,0.00,,---,0.04,VWS V14.01,2013-04-17 22:24:00,
2013-04-17 18:29:00,70.2,3.2,27.58,ESE,121,2.2,2.2,7,0.00,,---,0.04,VWS V14.01,2013-04-17 22:29:00,
2013-04-17 18:34:00,69.8,3.0,27.58,ESE,118,2.7,2.7,7,0.00,,---,0.04,VWS V14.01,2013-04-17 22:34:00,
2013-04-17 18:39:00,69.6,2.8,27.58,ESE,114,2.2,2.7,7,0.00,,---,0.04,VWS V14.01,2013-04-17 22:39:00,
2013-04-17 18:44:00,69.3,10.4,27.58,East,90,0.0,2.7,10,0.00,,---,0.04,VWS V14.01,2013-04-17 22:44:00,
2013-04-17 18:49:00,68.7,14.1,27.58,East,86,5.4,5.4,12,0.00,,---,0.04,VWS V14.01,2013-04-17 22:49:00,
2013-04-17 18:54:00,68.2,18.8,27.58,ESE,102,2.7,4.0,15,0.00,,---,0.04,VWS V14.01,2013-04-17 22:54:00,
2013-04-17 18:59:00,67.6,21.3,27.58,NNE,14,3.1,3.1,17,0.00,,---,0.04,VWS V14.01,2013-04-17 22:59:00,
2013-04-17 19:04:00,67.3,28.2,27.58,NNE,23,0.0,2.7,23,0.00,,---,0.04,VWS V14.01,2013-04-17 23:04:00,
2013-04-17 19:09:00,66.9,29.0,27.58,NNE,23,0.0,0.0,24,0.00,,---,0.04,VWS V14.01,2013-04-17 23:09:00,
2013-04-17 19:14:00,66.6,28.7,27.58,ENE,76,3.1,3.1,24,0.00,,---,0.04,VWS V14.01,2013-04-17 23:14:00,
2013-04-17 19:19:00,66.2,30.3,27.58,East,88,0.0,0.0,26,0.00,,---,0.04,VWS V14.01,2013-04-17 23:19:00,
2013-04-17 19:24:00,66.0,31.1,27.58,East,100,0.0,0.0,27,0.00,,---,0.04,VWS V14.01,2013-04-17 23:24:00,
2013-04-17 19:29:00,65.7,31.7,27.58,East,96,0.0,0.0,28,0.00,,---,0.04,VWS V14.01,2013-04-17 23:29:00,
2013-04-17 19:34:00,65.5,32.4,27.58,East,96,0.0,0.0,29,0.00,,---,0.04,VWS V14.01,2013-04-17 23:34:00,
2013-04-17 19:39:00,65.3,33.1,27.58,ENE,62,3.1,3.1,30,0.00,,---,0.04,VWS V14.01,2013-04-17 23:39:00,
2013-04-17 19:44:00,64.9,34.4,27.58,NE,56,2.2,2.7,32,0.00,,---,0.04,VWS V14.01,2013-04-17 23:44:00,
2013-04-17 19:49:00,64.6,34.8,27.58,NE,56,0.0,0.0,33,0.00,,---,0.04,VWS V14.01,2013-04-17 23:49:00,
2013-04-17 19:54:00,64.4,34.7,27.58,ENE,60,2.7,2.7,33,0.00,,---,0.04,VWS V14.01,2013-04-17 23:54:00,
2013-04-17 19:59:00,64.0,35.1,27.58,ENE,60,0.0,0.0,34,0.00,,---,0.04,VWS V14.01,2013-04-17 23:59:00,
2013-04-17 20:04:00,63.9,35.7,27.58,ENE,60,0.0,0.0,35,0.00,,---,0.04,VWS V14.01,2013-04-18 00:04:00,
2013-04-17 20:09:00,63.7,35.5,27.58,SE,143,2.2,6.3,35,0.00,,---,0.04,VWS V14.01,2013-04-18 00:09:00,
2013-04-17 20:14:00,63.7,36.2,27.58,SE,133,2.2,5.8,36,0.00,,---,0.04,VWS V14.01,2013-04-18 00:14:00,
2013-04-17 20:19:00,63.7,36.2,27.58,SE,130,6.3,6.3,36,0.00,,---,0.04,VWS V14.01,2013-04-18 00:19:00,
2013-04-17 20:24:00,63.7,35.5,27.58,SSW,193,3.6,5.4,35,0.00,,---,0.04,VWS V14.01,2013-04-18 00:24:00,
2013-04-17 20:29:00,64.2,34.5,27.58,SE,126,3.1,4.9,33,0.00,,---,0.04,VWS V14.01,2013-04-18 00:29:00,
2013-04-17 20:34:00,64.6,29.9,27.58,SSW,196,2.2,3.6,27,0.00,,---,0.04,VWS V14.01,2013-04-18 00:34:00,
2013-04-17 20:39:00,64.9,27.3,27.58,SSE,159,5.8,5.8,24,0.00,,---,0.04,VWS V14.01,2013-04-18 00:39:00,
2013-04-17 20:44:00,65.5,26.7,27.58,South,190,3.1,4.0,23,0.00,,---,0.04,VWS V14.01,2013-04-18 00:44:00,
2013-04-17 20:48:00,65.7,21.0,27.58,SE,143,2.7,3.1,18,0.00,,---,0.04,VWS V14.01,2013-04-18 00:48:00,
2013-04-17 20:53:00,65.8,16.9,27.58,NNE,22,2.7,2.7,15,0.00,,---,0.04,VWS V14.01,2013-04-18 00:53:00,
2013-04-17 20:58:00,65.7,21.0,27.58,NE,43,2.2,2.2,18,0.00,,---,0.04,VWS V14.01,2013-04-18 00:58:00,
2013-04-17 21:03:00,65.3,23.2,27.58,NE,43,2.2,2.2,20,0.00,,---,0.04,VWS V14.01,2013-04-18 01:03:00,
2013-04-17 21:09:00,64.8,26.1,27.58,NE,43,0.0,0.0,23,0.00,,---,0.04,VWS V14.01,2013-04-18 01:09:00,
2013-04-17 21:14:00,64.2,27.7,27.58,NE,43,0.0,0.0,25,0.00,,---,0.04,VWS V14.01,2013-04-18 01:14:00,
2013-04-17 21:19:00,63.9,28.3,27.58,NE,43,0.0,0.0,26,0.00,,---,0.04,VWS V14.01,2013-04-18 01:19:00,
2013-04-17 21:23:00,63.7,29.1,27.61,NE,43,0.0,0.0,27,0.00,,---,0.04,VWS V14.01,2013-04-18 01:23:00,
2013-04-17 21:28:00,63.3,29.7,27.61,NE,43,0.0,0.0,28,0.00,,---,0.04,VWS V14.01,2013-04-18 01:28:00,
2013-04-17 21:33:00,63.1,31.2,27.61,NE,43,0.0,0.0,30,0.00,,---,0.04,VWS V14.01,2013-04-18 01:33:00,
2013-04-17 21:38:00,63.0,32.7,27.61,NE,43,0.0,0.0,32,0.00,,---,0.04,VWS V14.01,2013-04-18 01:38:00,
2013-04-17 21:43:00,62.6,33.1,27.61,NE,43,0.0,0.0,33,0.00,,---,0.04,VWS V14.01,2013-04-18 01:43:00,
2013-04-17 21:48:00,62.4,33.7,27.61,NE,43,0.0,0.0,34,0.00,,---,0.04,VWS V14.01,2013-04-18 01:48:00,
2013-04-17 21:53:00,62.2,34.3,27.61,NE,43,0.0,0.0,35,0.00,,---,0.04,VWS V14.01,2013-04-18 01:53:00,
2013-04-17 21:58:00,62.1,34.1,27.61,NE,43,0.0,0.0,35,0.00,,---,0.04,VWS V14.01,2013-04-18 01:58:00,
2013-04-17 22:03:00,61.9,34.0,27.61,NE,43,0.0,0.0,35,0.00,,---,0.04,VWS V14.01,2013-04-18 02:03:00,
2013-04-17 22:08:00,61.7,34.5,27.61,NE,43,0.0,0.0,36,0.00,,---,0.04,VWS V14.01,2013-04-18 02:08:00,
2013-04-17 22:13:00,61.7,34.5,27.61,NE,43,0.0,0.0,36,0.00,,---,0.04,VWS V14.01,2013-04-18 02:13:00,
2013-04-17 22:18:00,61.5,35.0,27.61,NE,43,0.0,0.0,37,0.00,,---,0.04,VWS V14.01,2013-04-18 02:18:00,
2013-04-17 22:23:00,61.3,35.5,27.58,NE,43,0.0,0.0,38,0.00,,---,0.04,VWS V14.01,2013-04-18 02:23:00,
2013-04-17 22:28:00,61.3,35.5,27.58,NE,43,0.0,0.0,38,0.00,,---,0.04,VWS V14.01,2013-04-18 02:28:00,
2013-04-17 22:33:00,61.2,36.0,27.58,NE,43,0.0,0.0,39,0.00,,---,0.04,VWS V14.01,2013-04-18 02:33:00,
2013-04-17 22:38:00,61.2,36.0,27.58,NE,43,0.0,0.0,39,0.00,,---,0.04,VWS V14.01,2013-04-18 02:38:00,
2013-04-17 22:43:00,61.0,35.9,27.58,NE,43,0.0,0.0,39,0.00,,---,0.04,VWS V14.01,2013-04-18 02:43:00,
2013-04-17 22:48:00,61.0,36.5,27.58,NE,43,0.0,0.0,40,0.00,,---,0.04,VWS V14.01,2013-04-18 02:48:00,
2013-04-17 22:53:00,60.8,37.0,27.58,NE,43,0.0,0.0,41,0.00,,---,0.04,VWS V14.01,2013-04-18 02:53:00,
2013-04-17 22:58:00,60.8,37.0,27.58,NE,43,0.0,0.0,41,0.00,,---,0.04,VWS V14.01,2013-04-18 02:58:00,
2013-04-17 23:03:00,60.6,37.4,27.58,NE,43,0.0,0.0,42,0.00,,---,0.04,VWS V14.01,2013-04-18 03:03:00,
2013-04-17 23:08:00,60.6,38.0,27.58,NE,43,0.0,0.0,43,0.00,,---,0.04,VWS V14.01,2013-04-18 03:08:00,
2013-04-17 23:13:00,60.6,38.6,27.58,NE,43,0.0,0.0,44,0.00,,---,0.04,VWS V14.01,2013-04-18 03:13:00,
2013-04-17 23:18:00,60.6,38.6,27.58,NE,43,0.0,0.0,44,0.00,,---,0.04,VWS V14.01,2013-04-18 03:18:00,
2013-04-17 23:23:00,60.4,38.4,27.58,NE,43,0.0,0.0,44,0.00,,---,0.04,VWS V14.01,2013-04-18 03:23:00,
2013-04-17 23:28:00,60.4,38.4,27.58,NE,43,0.0,0.0,44,0.00,,---,0.04,VWS V14.01,2013-04-18 03:28:00,
2013-04-17 23:33:00,60.4,39.0,27.58,NE,43,0.0,0.0,45,0.00,,---,0.04,VWS V14.01,2013-04-18 03:33:00,
2013-04-17 23:38:00,60.4,39.0,27.58,NE,43,0.0,0.0,45,0.00,,---,0.04,VWS V14.01,2013-04-18 03:38:00,
2013-04-17 23:43:00,60.3,38.8,27.58,NE,43,0.0,0.0,45,0.00,,---,0.04,VWS V14.01,2013-04-18 03:43:00,
2013-04-17 23:48:00,60.1,38.7,27.58,NE,43,0.0,0.0,45,0.00,,---,0.04,VWS V14.01,2013-04-18 03:48:00,
2013-04-17 23:53:00,60.1,39.2,27.58,NE,43,0.0,0.0,46,0.00,,---,0.04,VWS V14.01,2013-04-18 03:53:00,
2013-04-17 23:58:00,60.1,39.2,27.58,NE,43,0.0,0.0,46,0.00,,---,0.04,VWS V14.01,2013-04-18 03:58:00,